FLX708 SBTF-SBBV
Flight info
| Callsign | FLX708 |
|---|---|
| Flight time | N/A |
| Altitude | 39000 |
| Route | BIVUT |
| Aircraft | E190/M-SDE3GILORVW/S |
Departure
| Time | N/A |
|---|---|
| Airport | Tefé Airport (SBTF) |
Arrival
| Time | 2026-05-03 21:12 |
|---|---|
| Airport | Atlas Brasil Cantanhede International Airport (SBBV) |
| Time | Latitude | Longitude | Altitude | Speed | Heading |
|---|---|---|---|---|---|
| 2026-05-03 20:46 | 1.72490 | -62.52265 | 34508 ft | 429 kts | 59° |
| 2026-05-03 20:46 | 1.74042 | -62.49796 | 34036 ft | 417 kts | 59° |
| 2026-05-03 20:47 | 1.75564 | -62.47374 | 33580 ft | 405 kts | 59° |
| 2026-05-03 20:47 | 1.77053 | -62.45005 | 33153 ft | 410 kts | 59° |
| 2026-05-03 20:47 | 1.78595 | -62.42549 | 32705 ft | 432 kts | 59° |
| 2026-05-03 20:47 | 1.80227 | -62.39951 | 32231 ft | 453 kts | 59° |
| 2026-05-03 20:48 | 1.81914 | -62.37267 | 31715 ft | 458 kts | 59° |
| 2026-05-03 20:48 | 1.83618 | -62.34555 | 31203 ft | 454 kts | 59° |
| 2026-05-03 20:48 | 1.85271 | -62.31926 | 30710 ft | 448 kts | 59° |
| 2026-05-03 20:48 | 1.86930 | -62.29284 | 30212 ft | 444 kts | 59° |
| 2026-05-03 20:49 | 1.88563 | -62.26686 | 29721 ft | 441 kts | 59° |
| 2026-05-03 20:49 | 1.90168 | -62.24131 | 29240 ft | 437 kts | 59° |
| 2026-05-03 20:49 | 1.91780 | -62.21565 | 28763 ft | 433 kts | 59° |
| 2026-05-03 20:49 | 1.93374 | -62.19028 | 28292 ft | 430 kts | 59° |
| 2026-05-03 20:50 | 1.94959 | -62.16505 | 27822 ft | 426 kts | 59° |
| 2026-05-03 20:50 | 1.96519 | -62.14020 | 27355 ft | 423 kts | 59° |
| 2026-05-03 20:50 | 1.98075 | -62.11543 | 26890 ft | 419 kts | 59° |
| 2026-05-03 20:50 | 1.99612 | -62.09096 | 26430 ft | 417 kts | 59° |
| 2026-05-03 20:51 | 2.01147 | -62.06653 | 25969 ft | 414 kts | 59° |
| 2026-05-03 20:51 | 2.02683 | -62.04207 | 25509 ft | 410 kts | 59° |
| 2026-05-03 20:51 | 2.04176 | -62.01830 | 25062 ft | 407 kts | 59° |
| 2026-05-03 20:51 | 2.05690 | -61.99420 | 24611 ft | 404 kts | 59° |
| 2026-05-03 20:52 | 2.07172 | -61.97059 | 24165 ft | 401 kts | 59° |
| 2026-05-03 20:52 | 2.08650 | -61.94705 | 23722 ft | 399 kts | 59° |
| 2026-05-03 20:52 | 2.10110 | -61.92380 | 23284 ft | 395 kts | 59° |
| 2026-05-03 20:52 | 2.11563 | -61.90067 | 22851 ft | 392 kts | 59° |
| 2026-05-03 20:53 | 2.13006 | -61.87768 | 22414 ft | 388 kts | 59° |
| 2026-05-03 20:53 | 2.14441 | -61.85482 | 21996 ft | 385 kts | 59° |
| 2026-05-03 20:53 | 2.15855 | -61.83228 | 21571 ft | 383 kts | 59° |
| 2026-05-03 20:53 | 2.17255 | -61.80999 | 21152 ft | 379 kts | 59° |
| 2026-05-03 20:54 | 2.18645 | -61.78785 | 20734 ft | 375 kts | 59° |
| 2026-05-03 20:54 | 2.21391 | -61.74410 | 19911 ft | 370 kts | 59° |
| 2026-05-03 20:54 | 2.22759 | -61.72231 | 19492 ft | 368 kts | 59° |
| 2026-05-03 20:55 | 2.24101 | -61.70092 | 19089 ft | 365 kts | 59° |
| 2026-05-03 20:55 | 2.25449 | -61.67944 | 18685 ft | 363 kts | 59° |
| 2026-05-03 20:55 | 2.26780 | -61.65824 | 18294 ft | 360 kts | 59° |
| 2026-05-03 20:55 | 2.28106 | -61.63710 | 17883 ft | 357 kts | 59° |
| 2026-05-03 20:56 | 2.29425 | -61.61610 | 17489 ft | 354 kts | 59° |
| 2026-05-03 20:56 | 2.30718 | -61.59549 | 17104 ft | 352 kts | 59° |
| 2026-05-03 20:56 | 2.32005 | -61.57497 | 16721 ft | 348 kts | 59° |
| 2026-05-03 20:56 | 2.33299 | -61.55436 | 16340 ft | 347 kts | 59° |
| 2026-05-03 20:57 | 2.34572 | -61.53407 | 15959 ft | 345 kts | 59° |
| 2026-05-03 20:57 | 2.35838 | -61.51388 | 15574 ft | 343 kts | 59° |
| 2026-05-03 20:57 | 2.37101 | -61.49376 | 15208 ft | 342 kts | 59° |
| 2026-05-03 20:57 | 2.38365 | -61.47360 | 14826 ft | 339 kts | 59° |
| 2026-05-03 20:58 | 2.39608 | -61.45379 | 14451 ft | 337 kts | 59° |
| 2026-05-03 20:58 | 2.40849 | -61.43401 | 14090 ft | 334 kts | 59° |
| 2026-05-03 20:58 | 2.42078 | -61.41442 | 13718 ft | 333 kts | 59° |
| 2026-05-03 20:58 | 2.43301 | -61.39491 | 13355 ft | 331 kts | 59° |
| 2026-05-03 20:59 | 2.44517 | -61.37553 | 12982 ft | 327 kts | 59° |
| 2026-05-03 20:59 | 2.45729 | -61.35620 | 12620 ft | 325 kts | 59° |
| 2026-05-03 20:59 | 2.46930 | -61.33706 | 12271 ft | 323 kts | 59° |
| 2026-05-03 20:59 | 2.48123 | -61.31802 | 11918 ft | 322 kts | 59° |
| 2026-05-03 21:00 | 2.49306 | -61.29917 | 11565 ft | 318 kts | 59° |
| 2026-05-03 21:00 | 2.50081 | -61.28680 | 11327 ft | 314 kts | 59° |
| 2026-05-03 21:00 | 2.51604 | -61.26252 | 10864 ft | 302 kts | 59° |
| 2026-05-03 21:00 | 2.52704 | -61.24498 | 10528 ft | 295 kts | 58° |
| 2026-05-03 21:01 | 2.53771 | -61.22796 | 10210 ft | 287 kts | 58° |
| 2026-05-03 21:01 | 2.54817 | -61.21127 | 9894 ft | 280 kts | 58° |
| 2026-05-03 21:01 | 2.55837 | -61.19500 | 9585 ft | 273 kts | 58° |
| 2026-05-03 21:01 | 2.56843 | -61.17897 | 9279 ft | 271 kts | 58° |
| 2026-05-03 21:02 | 2.57853 | -61.16285 | 8980 ft | 271 kts | 58° |
| 2026-05-03 21:02 | 2.58844 | -61.14705 | 8688 ft | 272 kts | 58° |
| 2026-05-03 21:02 | 2.59850 | -61.13100 | 8385 ft | 271 kts | 58° |
| 2026-05-03 21:02 | 2.60850 | -61.11504 | 8080 ft | 270 kts | 57° |
| 2026-05-03 21:03 | 2.61844 | -61.09918 | 7785 ft | 269 kts | 57° |
| 2026-05-03 21:03 | 2.62841 | -61.08328 | 7483 ft | 269 kts | 57° |
| 2026-05-03 21:03 | 2.63827 | -61.06755 | 7178 ft | 267 kts | 57° |
| 2026-05-03 21:03 | 2.64818 | -61.05174 | 6884 ft | 266 kts | 57° |
| 2026-05-03 21:04 | 2.65791 | -61.03622 | 6591 ft | 266 kts | 57° |
| 2026-05-03 21:04 | 2.66778 | -61.02046 | 6293 ft | 265 kts | 57° |
| 2026-05-03 21:04 | 2.67751 | -61.00494 | 6003 ft | 264 kts | 57° |
| 2026-05-03 21:04 | 2.68728 | -60.98936 | 5705 ft | 263 kts | 57° |
| 2026-05-03 21:05 | 2.69703 | -60.97380 | 5417 ft | 263 kts | 57° |
| 2026-05-03 21:05 | 2.70662 | -60.95849 | 5154 ft | 253 kts | 57° |
| 2026-05-03 21:05 | 2.71566 | -60.94402 | 4942 ft | 241 kts | 59° |
| 2026-05-03 21:05 | 2.72320 | -60.92930 | 4702 ft | 233 kts | 62° |
| 2026-05-03 21:06 | 2.73035 | -60.91509 | 4470 ft | 224 kts | 62° |
| 2026-05-03 21:06 | 2.73726 | -60.90155 | 4247 ft | 217 kts | 62° |
| 2026-05-03 21:06 | 2.74407 | -60.88829 | 4027 ft | 211 kts | 62° |
| 2026-05-03 21:06 | 2.75066 | -60.87548 | 3821 ft | 204 kts | 62° |
| 2026-05-03 21:07 | 2.75707 | -60.86304 | 3661 ft | 194 kts | 62° |
| 2026-05-03 21:07 | 2.76310 | -60.85135 | 3457 ft | 185 kts | 62° |
| 2026-05-03 21:07 | 2.76893 | -60.84004 | 3207 ft | 179 kts | 62° |
| 2026-05-03 21:07 | 2.77460 | -60.82906 | 2971 ft | 177 kts | 62° |
| 2026-05-03 21:08 | 2.78021 | -60.81818 | 2741 ft | 177 kts | 62° |
| 2026-05-03 21:08 | 2.78586 | -60.80724 | 2507 ft | 177 kts | 62° |
| 2026-05-03 21:08 | 2.79144 | -60.79642 | 2316 ft | 166 kts | 63° |
| 2026-05-03 21:08 | 2.79643 | -60.78675 | 2088 ft | 147 kts | 63° |
| 2026-05-03 21:09 | 2.80079 | -60.77831 | 1889 ft | 127 kts | 63° |
| 2026-05-03 21:09 | 2.80470 | -60.77072 | 1712 ft | 118 kts | 63° |
| 2026-05-03 21:09 | 2.80844 | -60.76346 | 1577 ft | 119 kts | 63° |
| 2026-05-03 21:09 | 2.81230 | -60.75599 | 1433 ft | 121 kts | 63° |
| 2026-05-03 21:10 | 2.81618 | -60.74847 | 1282 ft | 121 kts | 63° |
| 2026-05-03 21:10 | 2.82007 | -60.74092 | 1126 ft | 122 kts | 63° |
| 2026-05-03 21:10 | 2.82399 | -60.73333 | 975 ft | 126 kts | 63° |
| 2026-05-03 21:10 | 2.82802 | -60.72551 | 809 ft | 124 kts | 63° |
| 2026-05-03 21:11 | 2.83190 | -60.71801 | 640 ft | 121 kts | 63° |
| 2026-05-03 21:11 | 2.83586 | -60.71053 | 489 ft | 121 kts | 63° |
| 2026-05-03 21:11 | 2.83971 | -60.70304 | 328 ft | 124 kts | 64° |
| 2026-05-03 21:11 | 2.84343 | -60.69570 | 273 ft | 99 kts | 63° |
| 2026-05-03 21:12 | 2.84557 | -60.69151 | 271 ft | 36 kts | 63° |
| 2026-05-03 21:12 | 2.84639 | -60.68992 | 271 ft | 24 kts | 62° |
| 2026-05-03 21:12 | 2.84715 | -60.68843 | 271 ft | 24 kts | 63° |
| 2026-05-03 21:12 | 2.84791 | -60.68694 | 271 ft | 24 kts | 63° |
| 2026-05-03 21:13 | 2.84858 | -60.68563 | 271 ft | 11 kts | 63° |
| 2026-05-03 21:13 | 2.84883 | -60.68485 | 271 ft | 12 kts | 117° |
| 2026-05-03 21:13 | 2.84811 | -60.68437 | 271 ft | 13 kts | 152° |
| 2026-05-03 21:13 | 2.84740 | -60.68464 | 271 ft | 13 kts | 243° |
| 2026-05-03 21:14 | 2.84695 | -60.68552 | 271 ft | 15 kts | 243° |
| 2026-05-03 21:14 | 2.84644 | -60.68653 | 271 ft | 16 kts | 243° |
| 2026-05-03 21:14 | 2.84589 | -60.68763 | 271 ft | 18 kts | 243° |
| 2026-05-03 21:14 | 2.84528 | -60.68881 | 271 ft | 20 kts | 242° |
| 2026-05-03 21:15 | 2.84462 | -60.69011 | 270 ft | 21 kts | 243° |
| 2026-05-03 21:15 | 2.84398 | -60.69137 | 272 ft | 14 kts | 243° |
| 2026-05-03 21:15 | 2.84359 | -60.69214 | 273 ft | 11 kts | 243° |
| 2026-05-03 21:15 | 2.84310 | -60.69235 | 274 ft | 6 kts | 163° |
| 2026-05-03 21:16 | 2.84270 | -60.69222 | 274 ft | 6 kts | 154° |
| 2026-05-03 21:16 | 2.84239 | -60.69206 | 274 ft | 1 kts | 152° |
| 2026-05-03 21:16 | 2.84238 | -60.69206 | 274 ft | 0 kts | 152° |